Latest Weather Observations for Miles

IDQ60801

Issued at 8:02 pm EST Tuesday 30 June 2015 (issued every 30 minutes, with the page automatically refreshed every 10 minutes)

About weather observations | Map of weather stations | Latest weather observations for QLD | Other Formats
Station Details ID: 042112 Name: MILES CONSTANCE STREET Lat: -26.66 Lon: 150.18 Height: 304.8 m
Data from the previous 72 hours. | See also: Recent months at Miles
Date/Time
EST
Temp
°C
App
Temp
°C
Dew
Point
Rel
Hum
%
Delta-T
°C
Wind Press
QNH
hPa
Press
MSL
hPa
Rain
since 9 am
mm
Dir
 
Spd
km/h
Gust
km/h
Spd
kts
Gust
kts
30/08:00pm 13.4 13.9 11.5 88 1.0 CALM 0 0 0 0 1026.4 - 0.0
30/07:30pm 14.4 15.2 12.4 88 1.1 CALM 0 0 0 0 1026.1 - 0.0
30/07:00pm 15.1 16.0 12.8 86 1.3 CALM 0 0 0 0 1025.8 - 0.0
30/06:30pm 15.7 16.5 12.5 81 1.8 CALM 0 0 0 0 1025.4 - 0.0
30/06:00pm 16.4 17.2 12.6 78 2.1 CALM 0 0 0 0 1025.0 1025.0 0.0
30/05:30pm 16.9 17.8 12.8 77 2.3 CALM 0 0 0 0 1024.7 - 0.0
30/05:00pm 17.6 18.4 12.6 72 2.8 CALM 0 0 0 0 1024.5 - 0.0
30/04:30pm 18.5 19.4 12.9 70 3.2 CALM 0 0 0 0 1024.4 - 0.0
30/04:00pm 19.2 20.0 12.5 65 3.8 CALM 0 0 0 0 1024.4 - 0.0
30/03:30pm 20.0 20.6 11.8 59 4.6 CALM 0 0 0 0 1024.2 - 0.0
30/03:00pm 20.5 20.8 10.9 54 5.3 CALM 0 0 0 0 1024.5 1024.5 0.0
30/02:30pm 20.4 20.5 10.1 51 5.6 CALM 0 0 0 0 1024.7 - 0.0
30/02:00pm 20.6 20.6 9.7 49 5.9 CALM 0 0 0 0 1024.8 - 0.0
30/01:30pm 21.0 20.5 9.5 47 6.2 WNW 2 9 1 5 1025.0 - 0.0
30/01:00pm 20.8 20.1 10.2 50 5.8 NNW 4 11 2 6 1025.3 - 0.0
30/12:30pm 21.6 20.3 9.9 47 6.4 N 7 13 4 7 1025.5 - 0.0
30/12:00pm 20.7 18.2 9.6 49 6.0 NE 13 20 7 11 1025.9 1025.9 0.0
30/11:30am 19.8 17.0 10.0 53 5.3 NE 15 20 8 11 1026.3 - 0.0
30/11:00am 19.4 16.8 10.6 56 4.8 NNE 15 20 8 11 1027.2 - 0.0
30/10:30am 19.4 17.6 11.0 58 4.6 NE 11 17 6 9 1027.6 - 0.0
30/10:00am 17.7 16.6 11.9 69 3.2 NE 9 13 5 7 1028.0 - 0.0
30/09:30am 16.5 15.1 12.2 76 2.4 NE 11 20 6 11 1028.2 - 0.0
30/09:00am 15.7 14.7 12.3 80 1.9 NE 9 19 5 10 1028.4 1028.4 0.0
30/08:30am 13.3 14.1 12.4 94 0.5 CALM 0 0 0 0 1028.2 - 0.0
30/08:00am 11.9 12.3 11.3 96 0.3 CALM 0 2 0 1 1027.6 - 0.0
30/07:30am 10.6 10.7 10.2 97 0.2 CALM 0 0 0 0 1028.0 - 0.0
30/07:00am 9.9 9.8 9.5 97 0.2 CALM 0 0 0 0 1027.8 - 0.0
30/06:30am 9.9 9.8 9.5 97 0.2 CALM 0 0 0 0 1027.5 - 0.0
30/06:00am 9.5 9.4 9.3 99 0.1 CALM 0 0 0 0 1027.5 1027.6 0.0
30/05:30am 10.0 9.9 9.6 97 0.2 CALM 0 0 0 0 1027.6 - 0.0
30/05:00am 10.1 10.0 9.5 96 0.3 CALM 0 0 0 0 1027.4 - 0.0
30/04:30am 10.4 10.5 10.0 97 0.2 CALM 0 0 0 0 1027.4 - 0.0
30/04:00am 10.7 10.8 10.3 97 0.2 CALM 0 0 0 0 1027.4 - 0.0
30/03:30am 11.2 11.5 10.8 97 0.2 CALM 0 0 0 0 1027.4 - 0.0
30/03:00am 11.3 11.5 10.7 96 0.3 CALM 0 0 0 0 1027.9 1027.9 0.0
30/02:30am 11.8 12.1 11.0 95 0.4 CALM 0 0 0 0 1027.9 - 0.0
30/02:00am 12.9 13.5 11.8 93 0.6 CALM 0 6 0 3 1027.8 - 0.0
30/01:30am 13.5 12.8 12.0 91 0.8 E 7 13 4 7 1027.5 - 0.0
30/01:00am 13.8 12.7 12.0 89 1.0 ENE 9 17 5 9 1027.9 - 0.0
30/12:30am 13.5 13.7 12.0 91 0.8 E 2 9 1 5 1028.1 - 0.0
30/12:00am 13.6 13.0 12.3 92 0.7 E 7 11 4 6 1028.3 1028.3 0.0
 
Date/Time
EST
Temp
°C
App
Temp
°C
Dew
Point
Rel
Hum
%
Delta-T
°C
Wind Press
QNH
hPa
Press
MSL
hPa
Rain
since 9 am
mm
Dir
 
Spd
km/h
Gust
km/h
Spd
kts
Gust
kts
29/11:30pm 13.9 13.5 12.3 90 0.9 ENE 6 11 3 6 1028.8 - 0.0
29/11:00pm 14.3 13.8 12.5 89 1.0 E 7 15 4 8 1028.9 - 0.0
29/10:30pm 14.5 13.6 12.7 89 1.0 E 9 15 5 8 1028.9 - 0.0
29/10:00pm 14.8 13.9 12.6 87 1.2 E 9 15 5 8 1028.8 - 0.0
29/09:30pm 15.1 14.3 12.8 86 1.3 ESE 9 17 5 9 1028.7 - 0.0
29/09:00pm 15.8 14.5 12.6 81 1.8 ESE 11 22 6 12 1028.8 1028.8 0.0
29/08:30pm 16.5 15.9 12.4 77 2.3 ESE 7 15 4 8 1028.6 - 0.0
29/08:00pm 17.0 15.6 12.1 73 2.7 E 11 19 6 10 1028.4 - 0.0
29/07:30pm 17.3 16.5 11.7 69 3.1 ESE 7 13 4 7 1028.2 - 0.0
29/07:00pm 17.4 17.5 11.4 68 3.3 E 2 13 1 7 1027.8 - 0.0
29/06:30pm 17.5 17.2 11.3 67 3.4 E 4 9 2 5 1027.4 - 0.0
29/06:00pm 18.2 17.4 11.1 63 3.9 E 6 11 3 6 1027.3 1027.4 0.0
29/05:30pm 19.0 18.0 11.0 59 4.4 E 7 11 4 6 1026.8 - 0.0
29/05:00pm 19.9 18.4 10.6 55 5.1 E 9 13 5 7 1026.7 - 0.0
29/04:30pm 20.8 18.4 10.2 50 5.8 E 13 20 7 11 1026.5 - 0.0
29/04:00pm 21.9 19.6 10.5 48 6.3 ENE 13 24 7 13 1026.3 - 0.0
29/03:30pm 21.6 19.3 10.6 49 6.1 ENE 13 20 7 11 1026.2 - 0.0
29/03:00pm 21.3 18.9 11.3 53 5.6 E 15 26 8 14 1026.3 1026.3 0.0
29/02:30pm 22.1 20.0 11.0 49 6.2 E 13 22 7 12 1026.4 - 0.0
29/02:00pm 21.7 19.1 10.7 49 6.1 ENE 15 26 8 14 1026.6 - 0.0
29/01:30pm 22.4 20.2 10.9 48 6.4 ENE 13 26 7 14 1026.9 - 0.0
29/01:00pm 22.0 19.0 10.8 49 6.3 NE 17 28 9 15 1027.4 - 0.0
29/12:30pm 21.5 19.4 11.3 52 5.7 ENE 13 20 7 11 1028.2 - 0.0
29/12:00pm 20.7 18.2 11.1 54 5.3 NE 15 26 8 14 1029.1 1029.1 0.0
29/11:30am 20.7 19.3 12.2 58 4.8 E 11 17 6 9 1029.9 - 0.0
29/11:00am 20.7 19.6 11.8 56 5.0 ENE 9 17 5 9 1030.1 - 0.0
29/10:30am 19.6 17.8 12.1 62 4.2 ENE 13 17 7 9 1030.5 - 0.0
29/10:00am 19.2 17.4 12.0 63 4.0 ENE 13 19 7 10 1030.4 - 0.0
29/09:30am 17.8 18.5 12.2 70 3.1 CALM 0 0 0 0 1030.6 - 0.0
29/09:00am 13.7 14.1 11.1 84 1.4 CALM 0 0 0 0 1030.8 1030.9 0.0
29/08:30am 11.0 10.9 9.6 91 0.7 CALM 0 0 0 0 1030.8 - 0.0
29/08:00am 9.5 9.2 8.5 93 0.5 CALM 0 0 0 0 1030.7 - 0.0
29/07:30am 7.6 6.9 7.0 96 0.3 CALM 0 0 0 0 1030.5 - 0.0
29/07:00am 6.4 5.5 6.0 97 0.2 CALM 0 0 0 0 1030.1 - 0.0
29/06:30am 6.6 5.8 6.4 99 0.1 CALM 0 0 0 0 1029.8 - 0.0
29/06:00am 6.5 5.7 6.3 99 0.1 CALM 0 0 0 0 1029.5 1029.5 0.0
29/05:30am 6.7 5.9 6.3 97 0.2 CALM 0 0 0 0 1029.3 - 0.0
29/05:00am 7.0 6.2 6.6 97 0.2 CALM 0 0 0 0 1029.0 - 0.0
29/04:30am 7.2 6.4 6.5 95 0.3 CALM 0 0 0 0 1028.9 - 0.0
29/04:00am 7.6 7.0 7.2 97 0.2 CALM 0 0 0 0 1029.2 - 0.0
29/03:30am 7.9 7.3 7.5 97 0.2 CALM 0 0 0 0 1029.2 - 0.0
29/03:00am 8.2 7.7 7.8 97 0.2 CALM 0 0 0 0 1029.1 1029.1 0.0
29/02:30am 8.3 7.8 7.9 97 0.2 CALM 0 0 0 0 1029.3 - 0.0
29/02:00am 8.9 8.6 8.5 97 0.2 CALM 0 0 0 0 1029.3 - 0.0
29/01:30am 9.2 8.9 8.8 97 0.2 CALM 0 0 0 0 1029.3 - 0.0
29/01:00am 9.6 9.4 9.0 96 0.3 CALM 0 0 0 0 1029.4 - 0.0
29/12:30am 10.0 9.9 9.4 96 0.3 CALM 0 0 0 0 1029.4 - 0.0
29/12:00am 10.5 10.5 9.7 95 0.4 CALM 0 0 0 0 1029.7 1029.7 0.0
 
Date/Time
EST
Temp
°C
App
Temp
°C
Dew
Point
Rel
Hum
%
Delta-T
°C
Wind Press
QNH
hPa
Press
MSL
hPa
Rain
since 9 am
mm
Dir
 
Spd
km/h
Gust
km/h
Spd
kts
Gust
kts
28/11:30pm 11.1 11.1 9.9 92 0.6 CALM 0 0 0 0 1030.0 - 0.0
28/11:00pm 11.8 11.9 10.3 90 0.8 CALM 0 0 0 0 1030.1 - 0.0
28/10:00pm 14.7 13.9 11.2 79 1.9 NE 6 17 3 9 1029.9 - 0.0
28/09:30pm 13.1 13.4 11.0 87 1.1 CALM 0 0 0 0 1029.8 - 0.0
28/09:00pm 14.3 14.7 11.3 82 1.6 CALM 0 0 0 0 1029.8 1029.8 0.0
28/08:30pm 14.9 15.4 11.6 80 1.8 CALM 0 6 0 3 1029.7 - 0.0
28/08:00pm 16.7 15.7 10.3 66 3.4 ENE 6 11 3 6 1029.5 - 0.0
28/07:30pm 15.9 16.7 12.5 80 1.9 CALM 0 0 0 0 1029.4 - 0.0
28/07:00pm 16.9 17.8 12.8 77 2.3 CALM 0 0 0 0 1029.2 - 0.0
28/06:30pm 17.7 18.6 12.9 73 2.7 CALM 0 0 0 0 1028.8 - 0.0
28/06:00pm 18.6 19.4 12.4 67 3.5 CALM 0 0 0 0 1028.4 1028.4 0.0
28/05:30pm 19.8 20.2 11.1 57 4.8 CALM 0 6 0 3 1028.1 - 0.0
28/05:00pm 20.4 20.7 11.0 54 5.2 CALM 0 6 0 3 1028.0 - 0.0
28/04:30pm 20.9 20.0 10.5 51 5.7 E 6 13 3 7 1027.8 - 0.0
28/04:00pm 21.5 20.3 10.4 49 6.1 SE 7 11 4 6 1027.6 - 0.0
28/03:30pm 22.2 19.6 9.3 43 7.0 SE 13 20 7 11 1027.5 - 0.0
28/03:00pm 22.7 20.6 9.7 43 7.1 NE 11 19 6 10 1027.5 1027.6 0.0
28/02:30pm 22.3 20.2 9.6 44 7.0 E 11 17 6 9 1027.6 - 0.0
28/02:00pm 21.9 19.8 9.8 46 6.6 ESE 11 20 6 11 1027.9 - 0.0
28/01:30pm 21.8 20.3 10.4 48 6.3 ESE 9 19 5 10 1028.1 - 0.0
28/01:00pm 22.3 20.9 11.0 48 6.3 SE 9 19 5 10 1028.5 - 0.0
28/12:30pm 21.5 20.1 10.9 51 5.9 ESE 9 17 5 9 1029.0 - 0.0
28/12:00pm 21.9 20.1 10.7 49 6.2 ENE 11 19 6 10 1029.4 1029.4 0.0
28/11:30am 21.4 20.0 10.9 51 5.9 ENE 9 15 5 8 1030.0 - 0.0
28/11:00am 20.6 19.9 12.1 58 4.8 E 7 11 4 6 1030.4 - 0.0
28/10:30am 19.6 19.1 12.5 63 4.0 ESE 7 11 4 6 1030.9 - 0.0
28/10:00am 18.1 17.6 12.6 70 3.1 SE 7 11 4 6 1031.3 - 0.0
28/09:30am 15.4 16.1 12.3 82 1.7 CALM 0 0 0 0 1031.4 - 0.0
28/09:00am 12.8 13.0 10.7 87 1.1 CALM 0 0 0 0 1031.4 1031.4 0.0
28/08:30am 10.3 10.2 9.3 93 0.5 CALM 0 0 0 0 1031.3 - 0.0
28/08:00am 8.6 8.2 8.2 97 0.2 CALM 0 0 0 0 1030.9 - 0.0
28/07:30am 7.3 6.6 7.1 99 0.1 CALM 0 0 0 0 1030.7 - 0.0
28/07:00am 6.6 5.8 6.4 99 0.1 CALM 0 0 0 0 1030.3 - 0.0
28/06:30am 6.7 5.9 6.5 99 0.1 CALM 0 0 0 0 1030.2 - 0.0
28/06:00am 6.7 5.9 6.3 97 0.2 CALM 0 0 0 0 1030.0 1030.1 0.0
28/05:30am 6.6 5.7 6.2 97 0.2 CALM 0 0 0 0 1029.8 - 0.0
28/05:00am 6.8 6.0 6.4 97 0.2 CALM 0 0 0 0 1029.5 - 0.0
28/04:30am 7.1 6.4 6.9 99 0.1 CALM 0 0 0 0 1029.4 - 0.0
28/04:00am 7.6 6.9 7.0 96 0.3 CALM 0 0 0 0 1029.4 - 0.0
28/03:30am 7.7 7.1 7.5 99 0.1 CALM 0 0 0 0 1029.4 - 0.0
28/03:00am 8.0 7.4 7.6 97 0.2 CALM 0 0 0 0 1029.4 1029.4 0.0
28/02:30am 8.3 7.8 7.7 96 0.3 CALM 0 0 0 0 1029.6 - 0.0
28/02:00am 8.5 8.1 8.1 97 0.2 CALM 0 0 0 0 1029.8 - 0.0
28/01:30am 8.8 8.4 8.4 97 0.2 CALM 0 0 0 0 1029.9 - 0.0
28/01:00am 9.2 9.0 9.0 99 0.1 CALM 0 0 0 0 1030.0 - 0.0
28/12:30am 9.7 9.6 9.3 97 0.2 CALM 0 0 0 0 1030.0 - 0.0
28/12:00am 10.5 10.4 9.5 93 0.5 CALM 0 0 0 0 1030.0 1030.1 0.0
 
Date/Time
EST
Temp
°C
App
Temp
°C
Dew
Point
Rel
Hum
%
Delta-T
°C
Wind Press
QNH
hPa
Press
MSL
hPa
Rain
since 9 am
mm
Dir
 
Spd
km/h
Gust
km/h
Spd
kts
Gust
kts
27/11:30pm 10.5 10.5 9.9 96 0.3 CALM 0 0 0 0 1030.0 - 0.0
27/11:00pm 10.9 11.0 10.1 95 0.4 CALM 0 0 0 0 1030.1 - 0.0
27/10:30pm 11.2 11.4 10.4 95 0.4 CALM 0 0 0 0 1030.3 - 0.0
27/10:00pm 11.7 12.0 10.9 95 0.4 CALM 0 0 0 0 1030.3 - 0.0
27/09:30pm 12.5 12.9 11.4 93 0.6 CALM 0 0 0 0 1030.2 - 0.0
27/09:00pm 14.1 13.6 10.9 81 1.7 ESE 4 9 2 5 1030.1 1030.2 0.0
27/08:30pm 13.9 14.6 12.3 90 0.9 CALM 0 0 0 0 1030.1 - 0.0

Other Formats:

Comma delimited format used in spreadsheet applications
http://www.bom.gov.au/fwo/IDQ60801/IDQ60801.95529.axf

JavaScript Object Notation format (JSON) in row-major order
http://www.bom.gov.au/fwo/IDQ60801/IDQ60801.95529.json